Time;durP1;ratioP1;P1;durP2;ratioP2;P2;SDS_P1;SDS_P2;PMS_P1;PMS_P2;Temp;Humidity;BMP_temperature;BMP_pressure;BME280_temperature;BME280_humidity;BME280_pressure;Samples;Min_cycle;Max_cycle;Signal;HPM_P1;HPM_P2
2021/12/28 00:00:15;;;;;;;26.40;17.15;;;;;;;;;;5146891;27;20051;-57
2021/12/28 00:02:43;;;;;;;27.75;17.10;;;;;;;;;;5146947;27;20050;-57
2021/12/28 00:05:09;;;;;;;25.58;17.15;;;;;;;;;;5146472;27;20474;-58
2021/12/28 00:07:36;;;;;;;27.92;17.40;;;;;;;;;;5146818;27;20082;-56
2021/12/28 00:10:04;;;;;;;25.13;16.85;;;;;;;;;;5146532;27;20074;-57
2021/12/28 00:12:32;;;;;;;25.85;16.58;;;;;;;;;;5147000;27;20067;-56
2021/12/28 00:15:06;;;;;;;30.35;16.27;;;;;;;;;;5146678;27;20045;-57
2021/12/28 00:20:17;;;;;;;26.55;17.83;;;;;;;;;;5145845;27;20107;-58
2021/12/28 00:22:43;;;;;;;30.20;18.15;;;;;;;;;;5146893;27;20054;-55
2021/12/28 00:25:11;;;;;;;24.45;16.30;;;;;;;;;;5146473;27;20076;-57
2021/12/28 00:27:37;;;;;;;35.70;18.45;;;;;;;;;;5146479;27;20047;-57
2021/12/28 00:30:04;;;;;;;30.40;17.70;;;;;;;;;;5146295;27;20070;-56
2021/12/28 00:32:30;;;;;;;29.67;18.30;;;;;;;;;;5146593;27;20107;-56
2021/12/28 00:34:56;;;;;;;28.25;17.77;;;;;;;;;;5146496;27;20042;-56
2021/12/28 00:37:22;;;;;;;35.45;19.27;;;;;;;;;;5145617;27;20079;-57
2021/12/28 00:39:49;;;;;;;32.72;18.65;;;;;;;;;;5146373;27;20043;-56
2021/12/28 00:42:15;;;;;;;31.83;19.40;;;;;;;;;;5146229;27;20110;-56
2021/12/28 00:44:41;;;;;;;34.55;20.52;;;;;;;;;;5146233;27;20081;-56
2021/12/28 00:47:07;;;;;;;28.70;18.05;;;;;;;;;;5146311;27;20101;-57
2021/12/28 00:49:33;;;;;;;32.45;19.95;;;;;;;;;;5146124;27;20125;-55
2021/12/28 00:51:59;;;;;;;40.80;20.90;;;;;;;;;;5126949;27;20076;-55
2021/12/28 00:54:25;;;;;;;35.70;19.45;;;;;;;;;;5146331;27;20043;-56
2021/12/28 00:56:51;;;;;;;39.97;22.75;;;;;;;;;;5145935;27;20046;-57
2021/12/28 00:59:18;;;;;;;42.35;22.75;;;;;;;;;;5145705;27;20046;-59
2021/12/28 01:01:44;;;;;;;40.83;21.92;;;;;;;;;;5146150;27;20050;-56
2021/12/28 01:04:10;;;;;;;46.90;22.90;;;;;;;;;;5145731;27;20103;-55
2021/12/28 01:06:36;;;;;;;40.92;22.70;;;;;;;;;;5145047;27;20533;-56
2021/12/28 01:09:02;;;;;;;40.30;22.52;;;;;;;;;;5145937;27;20128;-55
2021/12/28 01:11:29;;;;;;;42.72;23.45;;;;;;;;;;5145758;27;20439;-57
2021/12/28 01:13:55;;;;;;;43.63;23.02;;;;;;;;;;5146169;27;20072;-56
2021/12/28 01:16:21;;;;;;;46.00;23.45;;;;;;;;;;5145697;27;20047;-56
2021/12/28 01:18:47;;;;;;;51.95;26.10;;;;;;;;;;5145744;27;20098;-56
2021/12/28 01:21:13;;;;;;;45.97;23.80;;;;;;;;;;5144728;27;20043;-57
2021/12/28 01:23:39;;;;;;;51.53;25.50;;;;;;;;;;5145732;27;20125;-54
2021/12/28 01:26:05;;;;;;;56.13;26.50;;;;;;;;;;5145699;27;20047;-56
2021/12/28 01:28:31;;;;;;;53.20;26.25;;;;;;;;;;5145654;27;20043;-55
2021/12/28 01:30:58;;;;;;;57.85;27.98;;;;;;;;;;5145287;28;20521;-56
2021/12/28 01:33:24;;;;;;;57.97;26.27;;;;;;;;;;5145716;28;20047;-57
2021/12/28 01:35:50;;;;;;;63.53;29.10;;;;;;;;;;5144786;28;20042;-56
2021/12/28 01:38:17;;;;;;;60.53;27.73;;;;;;;;;;5145803;28;20047;-57
2021/12/28 01:40:43;;;;;;;80.10;31.23;;;;;;;;;;5145281;28;20043;-57
2021/12/28 01:43:12;;;;;;;71.40;30.70;;;;;;;;;;5145549;28;20039;-57
2021/12/28 01:45:38;;;;;;;85.68;28.90;;;;;;;;;;5145408;28;20110;-57
2021/12/28 01:48:05;;;;;;;74.43;29.75;;;;;;;;;;5145186;28;20086;-57
2021/12/28 01:50:31;;;;;;;83.22;32.65;;;;;;;;;;5144578;28;20076;-56
2021/12/28 01:52:57;;;;;;;89.80;31.40;;;;;;;;;;5145406;28;20094;-56
2021/12/28 01:55:23;;;;;;;84.80;32.60;;;;;;;;;;5145235;28;20039;-55
2021/12/28 01:57:50;;;;;;;100.15;33.90;;;;;;;;;;5145617;28;20047;-56
2021/12/28 02:00:16;;;;;;;106.07;36.20;;;;;;;;;;5145220;28;20536;-56
2021/12/28 02:02:42;;;;;;;112.97;34.42;;;;;;;;;;5145285;28;20099;-55
2021/12/28 02:05:09;;;;;;;134.50;36.75;;;;;;;;;;5144596;28;20058;-55
2021/12/28 02:07:35;;;;;;;86.13;33.15;;;;;;;;;;5145064;28;20057;-56
2021/12/28 02:10:01;;;;;;;115.13;37.67;;;;;;;;;;5145097;28;20043;-57
2021/12/28 02:12:30;;;;;;;107.63;34.20;;;;;;;;;;5147036;27;20049;-57
2021/12/28 02:14:57;;;;;;;137.57;38.08;;;;;;;;;;5149017;27;20115;-55
2021/12/28 02:17:23;;;;;;;161.82;39.20;;;;;;;;;;5149252;27;20054;-56
2021/12/28 02:19:49;;;;;;;164.43;41.50;;;;;;;;;;5149013;27;20263;-54
2021/12/28 02:22:15;;;;;;;170.27;40.40;;;;;;;;;;5148230;27;20148;-54
2021/12/28 02:24:41;;;;;;;174.00;40.60;;;;;;;;;;5130715;27;20051;-57
2021/12/28 02:27:08;;;;;;;137.05;38.60;;;;;;;;;;5148736;27;20055;-57
2021/12/28 02:29:34;;;;;;;185.23;43.08;;;;;;;;;;5149163;27;20204;-56
2021/12/28 02:32:00;;;;;;;160.32;39.22;;;;;;;;;;5148748;27;20110;-56
2021/12/28 02:34:26;;;;;;;219.40;43.60;;;;;;;;;;5130371;27;20328;-56
2021/12/28 02:36:53;;;;;;;317.80;48.67;;;;;;;;;;5147895;27;20128;-57
2021/12/28 02:39:19;;;;;;;224.57;45.33;;;;;;;;;;5148780;27;20043;-56
2021/12/28 02:41:46;;;;;;;465.95;60.60;;;;;;;;;;5148669;27;20520;-58
2021/12/28 02:44:12;;;;;;;265.10;46.17;;;;;;;;;;5148648;27;20050;-57
2021/12/28 02:46:38;;;;;;;288.08;49.72;;;;;;;;;;5127284;27;20051;-57
2021/12/28 02:49:04;;;;;;;228.98;42.75;;;;;;;;;;5127811;28;20043;-56
2021/12/28 02:51:30;;;;;;;226.00;46.00;;;;;;;;;;5127056;28;20067;-56
2021/12/28 02:53:57;;;;;;;328.85;49.78;;;;;;;;;;5128088;28;20115;-56
2021/12/28 02:56:23;;;;;;;244.60;44.70;;;;;;;;;;5127757;28;20088;-58
2021/12/28 02:58:52;;;;;;;178.15;42.90;;;;;;;;;;5127814;28;20056;-57
2021/12/28 03:01:23;;;;;;;269.17;45.35;;;;;;;;;;5127363;28;20425;-58
2021/12/28 03:03:52;;;;;;;377.08;55.95;;;;;;;;;;5127521;28;20465;-56
2021/12/28 03:06:20;;;;;;;231.50;45.35;;;;;;;;;;5126687;28;20039;-56
2021/12/28 03:08:46;;;;;;;;;;;;;;;;;;5128015;28;20495;-54
2021/12/28 03:11:13;;;;;;;244.27;44.88;;;;;;;;;;5127153;28;20341;-55
2021/12/28 03:13:39;;;;;;;352.77;51.00;;;;;;;;;;5127214;28;20051;-54
2021/12/28 03:16:05;;;;;;;428.83;57.42;;;;;;;;;;5126866;28;20076;-55
2021/12/28 03:18:32;;;;;;;515.35;66.18;;;;;;;;;;5127222;28;20044;-56
2021/12/28 03:20:58;;;;;;;377.33;54.63;;;;;;;;;;5126361;28;20111;-56
2021/12/28 03:23:25;;;;;;;194.30;44.05;;;;;;;;;;5108713;28;20510;-55
2021/12/28 03:25:51;;;;;;;299.38;51.60;;;;;;;;;;5126975;28;20081;-56
2021/12/28 03:28:19;;;;;;;352.05;55.22;;;;;;;;;;5144606;27;20050;-55
2021/12/28 03:30:45;;;;;;;390.20;56.55;;;;;;;;;;5129168;27;20126;-57
2021/12/28 03:33:11;;;;;;;359.60;53.20;;;;;;;;;;5129755;27;20043;-55
2021/12/28 03:35:37;;;;;;;353.83;55.17;;;;;;;;;;5146849;27;20092;-56
2021/12/28 03:38:04;;;;;;;481.23;62.95;;;;;;;;;;5147670;27;20395;-56
2021/12/28 03:40:30;;;;;;;253.10;49.47;;;;;;;;;;5147567;27;20043;-55
2021/12/28 03:42:56;;;;;;;471.48;60.88;;;;;;;;;;5147408;27;20042;-56
2021/12/28 03:45:22;;;;;;;367.80;54.53;;;;;;;;;;5147325;27;20502;-56
2021/12/28 03:47:48;;;;;;;327.23;52.70;;;;;;;;;;5147374;27;20042;-55
2021/12/28 03:50:14;;;;;;;373.08;54.85;;;;;;;;;;5146598;27;20035;-56
2021/12/28 03:52:40;;;;;;;464.50;60.92;;;;;;;;;;5146893;27;20501;-56
2021/12/28 03:55:09;;;;;;;509.48;66.18;;;;;;;;;;5128690;27;20405;-57
2021/12/28 03:57:35;;;;;;;479.88;64.50;;;;;;;;;;5147259;27;20055;-58
2021/12/28 04:00:01;;;;;;;413.00;58.67;;;;;;;;;;5147195;27;20051;-56
2021/12/28 04:02:27;;;;;;;408.52;60.22;;;;;;;;;;5147002;27;20039;-57
2021/12/28 04:04:53;;;;;;;420.67;60.85;;;;;;;;;;5146927;27;20110;-56
2021/12/28 04:07:21;;;;;;;451.95;61.45;;;;;;;;;;5146174;27;20098;-56
2021/12/28 04:12:16;;;;;;;469.38;62.08;;;;;;;;;;5147182;27;20043;-55
2021/12/28 04:14:42;;;;;;;515.17;67.70;;;;;;;;;;5146639;27;20049;-55
2021/12/28 04:17:08;;;;;;;507.65;64.75;;;;;;;;;;5146586;27;20069;-56
2021/12/28 04:19:34;;;;;;;514.10;67.50;;;;;;;;;;5146807;27;20057;-55
2021/12/28 04:22:00;;;;;;;475.65;63.03;;;;;;;;;;5145810;27;20494;-56
2021/12/28 04:24:27;;;;;;;435.27;62.55;;;;;;;;;;5146883;27;20047;-57
2021/12/28 04:26:53;;;;;;;519.38;64.70;;;;;;;;;;5146485;27;20569;-55
2021/12/28 04:29:19;;;;;;;475.13;65.93;;;;;;;;;;5146318;27;20088;-56
2021/12/28 04:31:45;;;;;;;490.48;62.22;;;;;;;;;;5146529;27;20057;-55
2021/12/28 04:34:11;;;;;;;480.67;65.32;;;;;;;;;;5146127;27;20039;-56
2021/12/28 04:36:37;;;;;;;417.90;60.58;;;;;;;;;;5145711;27;20099;-55
2021/12/28 04:39:04;;;;;;;532.75;65.70;;;;;;;;;;5146286;27;20043;-56
2021/12/28 04:41:31;;;;;;;539.42;68.97;;;;;;;;;;5146231;27;20107;-56
2021/12/28 04:43:59;;;;;;;665.40;74.43;;;;;;;;;;5146092;27;20050;-55
2021/12/28 04:46:26;;;;;;;330.38;55.75;;;;;;;;;;5146234;27;20051;-55
2021/12/28 04:48:52;;;;;;;299.73;53.83;;;;;;;;;;5146153;27;20073;-56
2021/12/28 04:51:18;;;;;;;422.15;62.10;;;;;;;;;;5145393;27;20035;-57
2021/12/28 04:53:44;;;;;;;629.53;70.80;;;;;;;;;;5146247;27;20112;-55
2021/12/28 04:56:10;;;;;;;548.65;67.60;;;;;;;;;;5146121;27;20098;-56
2021/12/28 04:58:37;;;;;;;529.15;67.50;;;;;;;;;;5146137;27;20064;-55
2021/12/28 05:01:03;;;;;;;467.55;64.25;;;;;;;;;;5145976;27;20119;-56
2021/12/28 05:03:30;;;;;;;665.70;74.95;;;;;;;;;;5145863;27;20547;-57
2021/12/28 05:05:56;;;;;;;561.75;71.63;;;;;;;;;;5145111;27;20054;-56
2021/12/28 05:08:22;;;;;;;581.38;68.95;;;;;;;;;;5145871;27;20058;-56
2021/12/28 05:10:49;;;;;;;445.95;63.85;;;;;;;;;;5145676;27;20066;-56
2021/12/28 05:13:16;;;;;;;373.03;59.10;;;;;;;;;;5145965;27;20077;-56
2021/12/28 05:15:43;;;;;;;467.23;64.03;;;;;;;;;;5145919;27;20072;-55
2021/12/28 05:18:10;;;;;;;513.50;68.10;;;;;;;;;;5145889;27;20122;-55
2021/12/28 05:20:36;;;;;;;525.30;65.93;;;;;;;;;;5144981;27;20316;-54
2021/12/28 05:23:03;;;;;;;493.15;63.65;;;;;;;;;;5145750;27;20050;-56
2021/12/28 05:25:29;;;;;;;507.30;63.30;;;;;;;;;;5145711;27;20035;-55
2021/12/28 05:27:55;;;;;;;698.75;75.97;;;;;;;;;;5145654;27;20559;-55
2021/12/28 05:30:21;;;;;;;637.75;72.65;;;;;;;;;;5145365;27;20400;-56
2021/12/28 05:32:47;;;;;;;524.08;65.88;;;;;;;;;;5145543;28;20060;-55
2021/12/28 05:35:14;;;;;;;411.58;59.13;;;;;;;;;;5145021;28;20095;-56
2021/12/28 05:37:40;;;;;;;410.73;57.25;;;;;;;;;;5145634;28;20051;-56
2021/12/28 05:40:07;;;;;;;417.48;61.85;;;;;;;;;;5145529;28;20039;-56
2021/12/28 05:42:33;;;;;;;498.65;63.92;;;;;;;;;;5145745;28;20502;-57
2021/12/28 05:44:59;;;;;;;402.13;55.65;;;;;;;;;;5145460;28;20494;-56
2021/12/28 05:47:25;;;;;;;513.33;59.83;;;;;;;;;;5149024;27;20057;-56
2021/12/28 05:49:51;;;;;;;432.98;57.30;;;;;;;;;;5131274;27;20039;-57
2021/12/28 05:52:17;;;;;;;336.98;52.33;;;;;;;;;;5148988;27;20463;-58
2021/12/28 05:54:44;;;;;;;466.35;55.92;;;;;;;;;;5149661;27;20063;-57
2021/12/28 05:57:10;;;;;;;281.73;48.97;;;;;;;;;;5149315;27;20429;-55
2021/12/28 05:59:37;;;;;;;355.35;51.85;;;;;;;;;;5149644;27;20073;-58
2021/12/28 06:02:03;;;;;;;391.20;52.03;;;;;;;;;;5149434;27;20043;-57
2021/12/28 06:04:29;;;;;;;359.90;50.67;;;;;;;;;;5149393;27;20115;-57
2021/12/28 06:06:55;;;;;;;294.80;48.15;;;;;;;;;;5148698;27;20043;-55
2021/12/28 06:09:21;;;;;;;308.10;47.85;;;;;;;;;;5149444;27;20053;-56
2021/12/28 06:11:48;;;;;;;269.23;46.20;;;;;;;;;;5149079;27;20061;-56
2021/12/28 06:14:14;;;;;;;226.85;43.40;;;;;;;;;;5149220;27;20548;-57
2021/12/28 06:16:40;;;;;;;187.40;41.28;;;;;;;;;;5149104;27;20043;-56
2021/12/28 06:19:07;;;;;;;163.48;39.60;;;;;;;;;;5149311;27;20039;-56
2021/12/28 06:21:34;;;;;;;177.85;41.38;;;;;;;;;;5148211;27;20414;-56
2021/12/28 06:24:01;;;;;;;146.05;36.63;;;;;;;;;;5149117;27;20076;-56
2021/12/28 06:26:30;;;;;;;165.68;37.83;;;;;;;;;;5148729;27;20070;-57
2021/12/28 06:28:57;;;;;;;180.48;40.72;;;;;;;;;;5149023;27;20043;-56
2021/12/28 06:31:23;;;;;;;172.63;39.45;;;;;;;;;;5148882;27;20474;-54
2021/12/28 06:33:50;;;;;;;169.88;39.38;;;;;;;;;;5148876;27;20035;-57
2021/12/28 06:36:16;;;;;;;124.53;33.90;;;;;;;;;;5148118;27;20122;-56
2021/12/28 06:38:42;;;;;;;164.07;40.85;;;;;;;;;;5148761;27;20107;-55
2021/12/28 06:41:08;;;;;;;166.40;38.65;;;;;;;;;;5130333;27;20043;-54
2021/12/28 06:43:35;;;;;;;172.02;40.05;;;;;;;;;;5148689;27;20545;-58
2021/12/28 06:46:01;;;;;;;164.48;39.10;;;;;;;;;;5148612;27;20043;-57
2021/12/28 06:48:27;;;;;;;175.70;40.40;;;;;;;;;;5148526;27;20057;-57
2021/12/28 06:50:53;;;;;;;165.93;38.72;;;;;;;;;;5147691;27;20067;-58
2021/12/28 06:53:19;;;;;;;178.73;39.60;;;;;;;;;;5148451;27;20557;-57
2021/12/28 06:55:45;;;;;;;179.82;36.78;;;;;;;;;;5148632;27;20539;-56
2021/12/28 06:58:11;;;;;;;149.88;37.70;;;;;;;;;;5148071;27;20043;-57
2021/12/28 07:00:38;;;;;;;139.15;36.92;;;;;;;;;;5148122;27;20058;-56
2021/12/28 07:03:05;;;;;;;146.52;35.83;;;;;;;;;;5147995;27;20515;-57
2021/12/28 07:05:31;;;;;;;134.13;35.13;;;;;;;;;;5147701;27;20051;-57
2021/12/28 07:07:57;;;;;;;131.85;35.92;;;;;;;;;;5147664;27;20043;-56
2021/12/28 07:10:23;;;;;;;136.95;34.08;;;;;;;;;;5148117;27;20166;-57
2021/12/28 07:12:50;;;;;;;132.48;36.75;;;;;;;;;;5129612;27;20054;-57
2021/12/28 07:15:19;;;;;;;127.95;35.75;;;;;;;;;;5147851;27;20047;-55
2021/12/28 07:17:45;;;;;;;126.95;35.78;;;;;;;;;;5147978;27;20336;-56
2021/12/28 07:20:12;;;;;;;120.68;34.15;;;;;;;;;;5147384;27;20551;-56
2021/12/28 07:22:38;;;;;;;122.63;35.38;;;;;;;;;;5129239;27;20076;-56
2021/12/28 07:25:05;;;;;;;115.38;31.92;;;;;;;;;;5129127;27;20130;-56
2021/12/28 07:27:31;;;;;;;121.38;33.70;;;;;;;;;;5147924;27;20071;-56
2021/12/28 07:29:57;;;;;;;102.40;31.25;;;;;;;;;;5147556;27;20053;-56
2021/12/28 07:32:24;;;;;;;118.13;34.28;;;;;;;;;;5147398;27;20039;-56
2021/12/28 07:34:50;;;;;;;102.85;31.95;;;;;;;;;;5147754;27;20053;-55
2021/12/28 07:37:16;;;;;;;125.50;36.83;;;;;;;;;;5146736;27;20047;-56
2021/12/28 07:39:42;;;;;;;114.40;32.55;;;;;;;;;;5147535;27;20042;-56
2021/12/28 07:42:08;;;;;;;118.97;34.78;;;;;;;;;;5147566;27;20098;-56
2021/12/28 07:44:35;;;;;;;123.75;37.75;;;;;;;;;;5147375;27;20046;-57
2021/12/28 07:47:02;;;;;;;96.07;33.22;;;;;;;;;;5147343;27;20054;-56
2021/12/28 07:49:28;;;;;;;96.45;32.22;;;;;;;;;;5147606;27;20039;-57
2021/12/28 07:51:54;;;;;;;103.30;32.20;;;;;;;;;;5146490;27;20050;-55
2021/12/28 07:54:20;;;;;;;142.13;36.85;;;;;;;;;;5128828;27;20043;-56
2021/12/28 07:56:46;;;;;;;92.07;30.08;;;;;;;;;;5128486;27;20107;-56
2021/12/28 07:59:13;;;;;;;97.03;33.33;;;;;;;;;;5146832;27;20043;-56
2021/12/28 08:01:39;;;;;;;90.88;33.08;;;;;;;;;;5147059;27;20093;-56
2021/12/28 08:04:05;;;;;;;86.32;31.38;;;;;;;;;;5146778;27;20078;-56
2021/12/28 08:06:32;;;;;;;84.43;31.23;;;;;;;;;;5146282;27;20122;-55
2021/12/28 08:08:58;;;;;;;88.03;31.00;;;;;;;;;;5146395;27;20098;-57
2021/12/28 08:11:24;;;;;;;82.90;30.75;;;;;;;;;;5146431;27;20043;-57
2021/12/28 08:13:50;;;;;;;75.38;28.42;;;;;;;;;;5147067;27;20057;-56
2021/12/28 08:16:17;;;;;;;81.60;27.05;;;;;;;;;;5146596;27;20039;-56
2021/12/28 08:18:43;;;;;;;77.82;26.52;;;;;;;;;;5128308;27;20051;-56
2021/12/28 08:21:09;;;;;;;65.18;25.05;;;;;;;;;;5145683;27;20094;-57
2021/12/28 08:23:35;;;;;;;68.35;25.67;;;;;;;;;;5146379;27;20070;-55
2021/12/28 08:26:01;;;;;;;66.05;23.42;;;;;;;;;;5146910;27;20122;-57
2021/12/28 08:28:29;;;;;;;54.65;22.73;;;;;;;;;;5146514;27;20048;-55
2021/12/28 08:30:56;;;;;;;;;;;;;;;;;;5146939;27;20047;-56
2021/12/28 08:33:22;;;;;;;53.92;22.10;;;;;;;;;;5146630;27;19981;-56
2021/12/28 08:35:48;;;;;;;59.53;21.90;;;;;;;;;;5145714;27;20054;-57
2021/12/28 08:38:14;;;;;;;52.63;22.98;;;;;;;;;;5146323;27;20059;-56
2021/12/28 08:40:42;;;;;;;57.85;21.80;;;;;;;;;;5127813;27;20054;-57
2021/12/28 08:43:08;;;;;;;51.13;21.73;;;;;;;;;;5146155;27;20044;-56
2021/12/28 08:45:35;;;;;;;46.40;20.40;;;;;;;;;;5146323;27;20108;-56
2021/12/28 08:48:01;;;;;;;52.33;21.75;;;;;;;;;;5146136;27;20042;-56
2021/12/28 08:50:28;;;;;;;40.85;19.33;;;;;;;;;;5145661;27;20426;-56
2021/12/28 08:52:54;;;;;;;39.88;18.08;;;;;;;;;;5146335;27;20134;-57
2021/12/28 08:55:21;;;;;;;56.03;19.50;;;;;;;;;;5145972;27;20039;-56
2021/12/28 08:57:47;;;;;;;55.83;18.40;;;;;;;;;;5146188;27;20039;-55
2021/12/28 09:00:16;;;;;;;41.20;18.05;;;;;;;;;;5146066;27;20326;-56
2021/12/28 09:02:44;;;;;;;37.97;18.02;;;;;;;;;;5146031;27;20087;-56
2021/12/28 09:05:11;;;;;;;38.80;18.95;;;;;;;;;;5145389;27;20055;-56
2021/12/28 09:07:37;;;;;;;41.17;17.35;;;;;;;;;;5145581;27;20051;-57
2021/12/28 09:10:04;;;;;;;35.22;17.10;;;;;;;;;;5145764;27;20047;-56
2021/12/28 09:12:30;;;;;;;33.80;17.95;;;;;;;;;;5145826;27;20549;-58
2021/12/28 09:14:56;;;;;;;35.70;16.30;;;;;;;;;;5106666;28;20046;-57
2021/12/28 09:17:22;;;;;;;39.05;17.50;;;;;;;;;;5107107;28;20052;-58
2021/12/28 09:19:48;;;;;;;35.45;16.45;;;;;;;;;;5124916;28;20498;-58
2021/12/28 09:22:15;;;;;;;38.42;15.93;;;;;;;;;;5124091;28;20043;-56
2021/12/28 09:24:41;;;;;;;37.45;16.35;;;;;;;;;;5125194;28;20036;-58
2021/12/28 09:27:07;;;;;;;35.30;14.52;;;;;;;;;;5124942;28;20044;-57
2021/12/28 09:29:34;;;;;;;41.30;16.00;;;;;;;;;;5107033;28;20156;-57
2021/12/28 09:32:00;;;;;;;37.70;15.20;;;;;;;;;;5125018;28;20052;-57
2021/12/28 09:34:27;;;;;;;35.63;14.27;;;;;;;;;;5124804;28;20040;-56
2021/12/28 09:36:54;;;;;;;32.15;13.85;;;;;;;;;;5124198;28;20051;-57
2021/12/28 09:39:22;;;;;;;28.10;14.35;;;;;;;;;;5124901;28;20495;-57
2021/12/28 09:42:00;;;;;;;29.25;13.98;;;;;;;;;;5124739;28;20051;-57
2021/12/28 09:44:27;;;;;;;25.47;11.87;;;;;;;;;;5125236;28;20047;-56
2021/12/28 09:46:53;;;;;;;31.45;13.48;;;;;;;;;;5124583;28;20375;-57
2021/12/28 09:49:20;;;;;;;32.58;13.23;;;;;;;;;;5124823;28;20051;-57
2021/12/28 09:51:46;;;;;;;29.10;13.15;;;;;;;;;;5123872;28;20333;-57
2021/12/28 09:54:12;;;;;;;27.45;12.88;;;;;;;;;;5124971;28;20050;-57
2021/12/28 09:56:38;;;;;;;29.77;13.32;;;;;;;;;;5124949;28;20096;-57
2021/12/28 09:59:05;;;;;;;29.17;12.20;;;;;;;;;;5124698;28;20048;-57
2021/12/28 10:01:32;;;;;;;23.60;11.60;;;;;;;;;;5106394;28;20099;-57
2021/12/28 10:03:59;;;;;;;22.05;10.70;;;;;;;;;;5125318;28;20167;-56
2021/12/28 10:06:26;;;;;;;31.98;11.98;;;;;;;;;;5144769;28;20035;-57
2021/12/28 10:09:04;;;;;;;27.00;10.68;;;;;;;;;;5145158;28;20257;-59
2021/12/28 10:11:34;;;;;;;26.90;10.82;;;;;;;;;;5127104;28;20078;-57
2021/12/28 10:14:11;;;;;;;39.88;11.45;;;;;;;;;;5126942;28;20047;-56
2021/12/28 10:16:57;;;;;;;36.55;11.25;;;;;;;;;;5144950;28;20050;-57
2021/12/28 10:19:37;;;;;;;28.60;11.10;;;;;;;;;;5145163;28;20498;-58
2021/12/28 10:22:19;;;;;;;26.95;11.38;;;;;;;;;;5144332;28;20072;-58
2021/12/28 10:24:45;;;;;;;26.40;11.45;;;;;;;;;;5145065;28;20055;-57
2021/12/28 10:27:12;;;;;;;29.42;10.57;;;;;;;;;;5144819;28;20051;-57
2021/12/28 10:29:39;;;;;;;33.77;10.63;;;;;;;;;;5145272;28;20047;-56
2021/12/28 10:32:20;;;;;;;24.60;10.25;;;;;;;;;;5144764;27;20407;-56
2021/12/28 10:34:47;;;;;;;23.77;9.93;;;;;;;;;;5148952;27;20043;-61
2021/12/28 10:37:14;;;;;;;29.98;8.57;;;;;;;;;;5147882;27;20050;-57
2021/12/28 10:39:47;;;;;;;19.67;7.73;;;;;;;;;;5148897;27;20143;-57
2021/12/28 10:42:31;;;;;;;28.20;8.45;;;;;;;;;;5148360;27;20850;-57
2021/12/28 10:44:59;;;;;;;21.25;9.20;;;;;;;;;;5148566;27;20051;-57
2021/12/28 10:47:26;;;;;;;23.88;8.52;;;;;;;;;;5148535;27;20043;-57
2021/12/28 10:49:52;;;;;;;29.55;8.63;;;;;;;;;;5148313;27;20111;-58
2021/12/28 10:52:23;;;;;;;21.38;8.10;;;;;;;;;;5147683;27;20039;-57
2021/12/28 10:54:49;;;;;;;30.92;11.00;;;;;;;;;;5129912;27;20039;-57
2021/12/28 10:57:15;;;;;;;29.60;9.68;;;;;;;;;;5148422;27;20050;-58
2021/12/28 10:59:41;;;;;;;25.38;8.90;;;;;;;;;;5148642;27;20103;-58
2021/12/28 11:02:07;;;;;;;34.42;9.00;;;;;;;;;;5129696;27;20529;-57
2021/12/28 11:04:35;;;;;;;24.88;8.82;;;;;;;;;;5148250;27;20055;-57
2021/12/28 11:07:03;;;;;;;30.88;10.10;;;;;;;;;;5147474;27;20130;-57
2021/12/28 11:09:29;;;;;;;28.25;9.23;;;;;;;;;;5148101;27;20066;-58
2021/12/28 11:11:57;;;;;;;27.55;8.88;;;;;;;;;;5148324;27;20051;-58
2021/12/28 11:14:24;;;;;;;21.50;9.15;;;;;;;;;;5148240;27;20049;-57
2021/12/28 11:16:51;;;;;;;28.10;9.73;;;;;;;;;;5147725;27;20079;-57
2021/12/28 11:19:24;;;;;;;33.15;9.68;;;;;;;;;;5148121;27;20122;-57
2021/12/28 11:21:52;;;;;;;31.98;10.60;;;;;;;;;;5147095;27;20050;-58
2021/12/28 11:24:18;;;;;;;37.28;10.43;;;;;;;;;;5147878;27;20122;-58
2021/12/28 11:26:46;;;;;;;23.63;9.00;;;;;;;;;;5148086;27;20118;-57
2021/12/28 11:29:20;;;;;;;30.20;9.68;;;;;;;;;;5147859;27;20043;-56
2021/12/28 11:31:51;;;;;;;30.08;10.75;;;;;;;;;;5147653;27;20042;-57
2021/12/28 11:34:21;;;;;;;26.38;10.32;;;;;;;;;;5147780;27;20632;-55
2021/12/28 11:36:52;;;;;;;26.98;9.95;;;;;;;;;;5146980;27;20055;-55
2021/12/28 11:39:20;;;;;;;27.73;11.68;;;;;;;;;;5147958;27;20127;-55
2021/12/28 11:41:47;;;;;;;24.30;10.85;;;;;;;;;;5147204;27;20051;-55
2021/12/28 11:44:15;;;;;;;29.40;9.95;;;;;;;;;;5147331;27;20043;-57
2021/12/28 11:46:41;;;;;;;25.23;10.43;;;;;;;;;;5147468;27;20131;-56
2021/12/28 11:49:09;;;;;;;21.98;9.77;;;;;;;;;;5147361;27;20520;-57
2021/12/28 11:51:35;;;;;;;;;;;;;;;;;;5146973;27;20040;-57
2021/12/28 11:54:05;;;;;;;24.55;10.23;;;;;;;;;;5147564;27;19926;-55
2021/12/28 11:56:33;;;;;;;26.05;11.15;;;;;;;;;;5147095;27;20066;-56
2021/12/28 11:58:59;;;;;;;25.45;10.85;;;;;;;;;;5147263;27;20581;-55
2021/12/28 12:01:35;;;;;;;21.00;10.90;;;;;;;;;;5147094;27;20051;-54
2021/12/28 12:04:01;;;;;;;22.95;11.93;;;;;;;;;;5147016;27;20055;-56
2021/12/28 12:06:53;;;;;;;26.42;12.15;;;;;;;;;;5146465;27;20059;-58
2021/12/28 12:09:19;;;;;;;29.70;11.95;;;;;;;;;;5142550;27;20111;-56
2021/12/28 12:12:25;;;;;;;27.13;11.45;;;;;;;;;;5146734;27;20126;-56
2021/12/28 12:14:51;;;;;;;28.48;11.18;;;;;;;;;;5043132;28;20049;-55
2021/12/28 12:17:29;;;;;;;28.90;11.73;;;;;;;;;;5043159;28;20045;-57
2021/12/28 12:19:56;;;;;;;21.95;10.88;;;;;;;;;;5042979;28;20531;-56
2021/12/28 12:22:31;;;;;;;20.00;8.93;;;;;;;;;;5042370;28;20041;-56
2021/12/28 12:24:58;;;;;;;21.92;10.82;;;;;;;;;;5043032;28;20118;-56
2021/12/28 12:27:40;;;;;;;25.20;10.07;;;;;;;;;;5043320;28;20516;-55
2021/12/28 12:30:18;;;;;;;28.35;11.50;;;;;;;;;;5042567;28;20076;-55
2021/12/28 12:32:56;;;;;;;25.60;11.68;;;;;;;;;;5043066;28;20052;-55
2021/12/28 12:35:22;;;;;;;;;;;;;;;;;;5042790;28;20057;-56
2021/12/28 12:37:48;;;;;;;29.27;11.60;;;;;;;;;;5042755;28;19928;-56
2021/12/28 12:40:14;;;;;;;22.25;10.73;;;;;;;;;;5042635;28;20085;-57
2021/12/28 12:42:40;;;;;;;24.65;11.50;;;;;;;;;;5042842;28;20057;-56
2021/12/28 12:45:07;;;;;;;22.17;10.02;;;;;;;;;;5067736;28;20126;-58
2021/12/28 12:47:37;;;;;;;27.23;11.57;;;;;;;;;;5125599;28;20059;-55
2021/12/28 12:50:07;;;;;;;24.20;12.57;;;;;;;;;;5125037;28;20069;-55
2021/12/28 12:52:33;;;;;;;25.92;11.77;;;;;;;;;;5125416;28;20043;-55
2021/12/28 12:55:01;;;;;;;21.80;10.45;;;;;;;;;;5125153;28;20091;-55
2021/12/28 12:57:29;;;;;;;28.27;11.90;;;;;;;;;;5125376;28;20039;-56
2021/12/28 12:59:56;;;;;;;31.52;13.00;;;;;;;;;;5125379;28;20055;-56
2021/12/28 13:02:31;;;;;;;23.98;11.32;;;;;;;;;;5125390;28;20040;-56
2021/12/28 13:04:59;;;;;;;22.55;10.88;;;;;;;;;;5125259;28;20154;-55
2021/12/28 13:07:27;;;;;;;26.15;12.55;;;;;;;;;;5124797;28;20043;-55
2021/12/28 13:09:57;;;;;;;25.63;12.85;;;;;;;;;;5125327;28;20111;-54
2021/12/28 13:12:23;;;;;;;23.20;11.73;;;;;;;;;;5125274;28;20055;-56
2021/12/28 13:14:50;;;;;;;28.27;13.30;;;;;;;;;;5125399;28;20115;-56
2021/12/28 13:17:17;;;;;;;26.52;13.27;;;;;;;;;;5125058;28;20313;-55
2021/12/28 13:19:57;;;;;;;25.00;13.55;;;;;;;;;;5125236;28;20076;-58
2021/12/28 13:22:26;;;;;;;30.92;12.70;;;;;;;;;;5124468;28;20062;-55
2021/12/28 13:24:53;;;;;;;28.75;14.20;;;;;;;;;;5139654;27;20270;-55
2021/12/28 13:27:19;;;;;;;28.92;14.25;;;;;;;;;;5145520;27;20134;-54
2021/12/28 13:29:48;;;;;;;25.52;13.70;;;;;;;;;;5145671;27;20050;-56
2021/12/28 13:32:23;;;;;;;27.95;14.82;;;;;;;;;;5145464;27;20039;-55
2021/12/28 13:35:00;;;;;;;24.35;14.45;;;;;;;;;;5145481;28;20055;-55
2021/12/28 13:37:34;;;;;;;30.30;15.57;;;;;;;;;;5145137;28;20129;-56
2021/12/28 13:40:00;;;;;;;32.55;15.02;;;;;;;;;;5145646;28;20047;-56
2021/12/28 13:42:27;;;;;;;29.83;15.85;;;;;;;;;;5145653;28;20046;-55
2021/12/28 13:44:53;;;;;;;33.13;14.90;;;;;;;;;;5145343;28;20039;-55
2021/12/28 13:47:21;;;;;;;26.15;15.35;;;;;;;;;;5126963;28;20054;-56
2021/12/28 13:49:47;;;;;;;;;;;;;;;;;;5145835;28;20043;-57
2021/12/28 13:52:13;;;;;;;27.05;15.35;;;;;;;;;;5145116;28;19919;-56
2021/12/28 13:54:39;;;;;;;32.33;15.05;;;;;;;;;;5145271;28;20051;-55
2021/12/28 13:57:06;;;;;;;25.05;15.07;;;;;;;;;;5145402;28;20125;-56
2021/12/28 13:59:33;;;;;;;35.78;16.20;;;;;;;;;;5145434;28;20073;-58
2021/12/28 14:01:59;;;;;;;32.03;16.08;;;;;;;;;;5145077;28;20050;-56
2021/12/28 14:04:25;;;;;;;29.45;17.48;;;;;;;;;;5144960;28;20098;-57
2021/12/28 14:06:55;;;;;;;29.48;16.33;;;;;;;;;;5144848;27;20058;-56
2021/12/28 14:09:26;;;;;;;28.65;15.13;;;;;;;;;;5148658;27;20075;-57
2021/12/28 14:11:56;;;;;;;29.55;16.67;;;;;;;;;;5149300;27;20043;-57
2021/12/28 14:14:22;;;;;;;27.02;17.13;;;;;;;;;;5149378;27;20101;-57
2021/12/28 14:16:55;;;;;;;39.55;18.58;;;;;;;;;;5148945;27;20292;-56
2021/12/28 14:19:23;;;;;;;32.95;17.90;;;;;;;;;;5149469;27;20102;-55